Harriet Moran — WXT3652 — position and weather

sailwx.info

Track history (hours):
 
Tides and Currents Weather Stations Pressure Air Temp Water Temp Dewpoint Dewpoint Depression Visibility Wind Speed Wind Dir Waves Ship Positions

Harriet Moran

Owner: MORAN TOWING CORPORATION, New Canaan, CT. More information available from US FCC via Universal Licensing System and Coast Guard Vessel Documentation Center.

Last reported at 2017-Dec-15 08:01 UTC. Time now 2017-Dec-15 08:14 UTC.
Position N 39°16' W 076°34'.

Length 28 m; draft 4.4 m.

Type: Tug. MMSI: 367306490.

Date/timePositionNaut miles runAvg speedWind from/ knotsBaromVisibWave heightAir tempDewpointWater temp
2017-Dec-15 08:01N 39°16' W 076°34'0 0.0
2017-Dec-15 07:30N 39°16' W 076°34'0 0.0
2017-Dec-15 07:01N 39°16' W 076°34'0 0.0
2017-Dec-15 06:31N 39°16' W 076°34'0 0.0
2017-Dec-15 06:01N 39°16' W 076°34'0 0.0
2017-Dec-15 05:30N 39°16' W 076°34'0 0.0
2017-Dec-15 05:01N 39°16' W 076°34'0 0.0
2017-Dec-15 04:30N 39°16' W 076°34'0 0.0
2017-Dec-15 04:01N 39°16' W 076°34'1 0.6
2017-Dec-15 02:29N 39°15' W 076°33'0 0.2
2017-Dec-15 01:00N 39°15' W 076°33'1 2.5
2017-Dec-15 00:31N 39°14' W 076°32'1 0.1
2017-Dec-14 18:31N 39°15' W 076°33'0 0.5
2017-Dec-14 18:01N 39°15' W 076°32'0 0.3
2017-Dec-14 17:30N 39°15' W 076°32'2 3.1
2017-Dec-14 16:59N 39°13' W 076°32'1 3.1
2017-Dec-14 16:30N 39°14' W 076°33'2 3.8
2017-Dec-14 16:01N 39°16' W 076°34'0 0.0
2017-Dec-14 15:01N 39°16' W 076°34'0 0.0
2017-Dec-14 14:31N 39°16' W 076°34'0 0.0
2017-Dec-14 14:01N 39°16' W 076°34'0 0.0
2017-Dec-14 13:31N 39°16' W 076°34'0 0.0
2017-Dec-14 13:01N 39°16' W 076°34'0 0.0
2017-Dec-14 12:31N 39°16' W 076°34'0 0.0
2017-Dec-14 12:01N 39°16' W 076°34'0 0.0
2017-Dec-14 11:31N 39°16' W 076°34'0 0.0
2017-Dec-14 11:00N 39°16' W 076°34'0 0.0
2017-Dec-14 10:31N 39°16' W 076°34'0 0.0
2017-Dec-14 10:01N 39°16' W 076°34'1 1.2
2017-Dec-14 09:30N 39°15' W 076°34'2 4.1
2017-Dec-14 09:00N 39°13' W 076°34'1 1.5
2017-Dec-14 08:30N 39°13' W 076°35'1 1.6
2017-Dec-14 08:01N 39°13' W 076°34'1 2.3
2017-Dec-14 07:24N 39°14' W 076°33'0 0.7
2017-Dec-14 06:50N 39°15' W 076°33'1 3.8
2017-Dec-14 06:30N 39°15' W 076°34'1 1.2
2017-Dec-14 06:01N 39°16' W 076°34'0 0.0
2017-Dec-14 05:30N 39°16' W 076°34'0 0.0
2017-Dec-14 05:00N 39°16' W 076°34'0 0.1
2017-Dec-14 04:31N 39°16' W 076°34'0 0.0
2017-Dec-14 04:01N 39°16' W 076°34'0 0.0
2017-Dec-14 03:31N 39°16' W 076°34'0 0.0
2017-Dec-14 03:01N 39°16' W 076°34'0 0.0
2017-Dec-14 02:31N 39°16' W 076°34'0 0.0
2017-Dec-14 02:01N 39°16' W 076°34'0 0.0
2017-Dec-14 01:31N 39°16' W 076°34'0 0.0
2017-Dec-14 01:01N 39°16' W 076°34'1 1.6
2017-Dec-14 00:31N 39°15' W 076°34'1 1.1
2017-Dec-13 23:55N 39°15' W 076°34'0 0.2
2017-Dec-13 23:31N 39°14' W 076°34'0 0.0
2017-Dec-13 23:00N 39°14' W 076°34'2 3.8
2017-Dec-13 22:30N 39°16' W 076°36'0 0.4
2017-Dec-13 22:01N 39°16' W 076°36'1 2.0
2017-Dec-13 21:30N 39°16' W 076°34'0 0.0
2017-Dec-13 21:01N 39°16' W 076°34'0 0.0
2017-Dec-13 20:31N 39°16' W 076°34'0 0.0
2017-Dec-13 20:01N 39°16' W 076°34'0 0.0
2017-Dec-13 19:31N 39°16' W 076°34'0 0.0
2017-Dec-13 19:01N 39°16' W 076°34'0 0.0
2017-Dec-13 18:31N 39°16' W 076°34'0 0.0
2017-Dec-13 18:01N 39°16' W 076°34'0 0.0
2017-Dec-13 17:31N 39°16' W 076°34'0 0.0
2017-Dec-13 17:01N 39°16' W 076°34'0 0.0
2017-Dec-13 16:29N 39°16' W 076°34'2 4.3
2017-Dec-13 15:56N 39°14' W 076°34'0 0.5
2017-Dec-13 15:30N 39°13' W 076°34'1 1.6
2017-Dec-13 15:00N 39°13' W 076°35'3 5.8
2017-Dec-13 14:30N 39°16' W 076°34'0 0.8
2017-Dec-13 14:00N 39°16' W 076°34'0 0.0
2017-Dec-13 13:30N 39°16' W 076°34'0 0.0
2017-Dec-13 13:00N 39°16' W 076°34'0 0.0
2017-Dec-13 12:30N 39°16' W 076°34'0 0.0
2017-Dec-13 12:00N 39°16' W 076°34'0 0.0
2017-Dec-13 11:31N 39°16' W 076°34'0 0.0
2017-Dec-13 11:01N 39°16' W 076°34'0 0.0
2017-Dec-13 10:31N 39°16' W 076°34'0 0.0
2017-Dec-13 10:00N 39°16' W 076°34'0 0.0
2017-Dec-13 09:30N 39°16' W 076°34'0 0.0
2017-Dec-13 09:01N 39°16' W 076°34'0 0.0
2017-Dec-13 08:30N 39°16' W 076°34'0 0.0
2017-Dec-13 08:00N 39°16' W 076°34'0 0.0
2017-Dec-13 07:30N 39°16' W 076°34'0 0.0
2017-Dec-13 07:00N 39°16' W 076°34'0 0.0
2017-Dec-13 06:31N 39°16' W 076°34'0 0.0
2017-Dec-13 06:01N 39°16' W 076°34'0 0.0
2017-Dec-13 05:30N 39°16' W 076°34'0 0.0
2017-Dec-13 05:00N 39°16' W 076°34'0 0.0
2017-Dec-13 04:30N 39°16' W 076°34'0 0.0
2017-Dec-13 04:00N 39°16' W 076°34'0 0.0
2017-Dec-13 03:30N 39°16' W 076°34'0 0.0
2017-Dec-13 03:00N 39°16' W 076°34'0 0.0
2017-Dec-13 02:30N 39°16' W 076°34'0 0.0
2017-Dec-13 02:00N 39°16' W 076°34'0 0.0
2017-Dec-13 01:30N 39°16' W 076°34'0 0.0
2017-Dec-13 01:00N 39°16' W 076°34'0 0.0
2017-Dec-13 00:30N 39°16' W 076°34'0 0.0
2017-Dec-13 00:00N 39°16' W 076°34'0 0.0
2017-Dec-12 23:30N 39°16' W 076°34'0 0.0
2017-Dec-12 23:00N 39°16' W 076°34'0 0.0
2017-Dec-12 22:31N 39°16' W 076°34'0 0.0
2017-Dec-12 22:01N 39°16' W 076°34'0 0.0
2017-Dec-12 21:30N 39°16' W 076°34'0 0.0
2017-Dec-12 21:00N 39°16' W 076°34'0 0.0
2017-Dec-12 20:31N 39°16' W 076°34'0 0.0
2017-Dec-12 20:00N 39°16' W 076°34'0 0.0
2017-Dec-12 19:31N 39°16' W 076°34'0 0.0
2017-Dec-12 19:01N 39°16' W 076°34'1 1.8
2017-Dec-12 18:31N 39°15' W 076°33'1 1.8
2017-Dec-12 17:58N 39°15' W 076°32'0 0.5
2017-Dec-12 17:31N 39°15' W 076°32'0 0.0
2017-Dec-12 17:00N 39°15' W 076°32'0 0.5
2017-Dec-12 16:30N 39°15' W 076°32'1 2.0
2017-Dec-12 16:01N 39°15' W 076°34'1 1.6
2017-Dec-12 15:30N 39°15' W 076°35'1 1.9
2017-Dec-12 15:01N 39°16' W 076°34'0 0.0
2017-Dec-12 14:30N 39°16' W 076°34'0 0.0
2017-Dec-12 14:01N 39°16' W 076°34'0 0.0
2017-Dec-12 13:31N 39°16' W 076°34'0 0.0
2017-Dec-12 13:00N 39°16' W 076°34'0 0.0
2017-Dec-12 12:31N 39°16' W 076°34'0 0.0
2017-Dec-12 12:00N 39°16' W 076°34'0 0.0
2017-Dec-12 11:30N 39°16' W 076°34'0 0.0
2017-Dec-12 11:01N 39°16' W 076°34'0 0.0
2017-Dec-12 10:30N 39°16' W 076°34'0 0.0
2017-Dec-12 10:00N 39°16' W 076°34'0 0.0
2017-Dec-12 09:30N 39°16' W 076°34'0 0.0
2017-Dec-12 09:00N 39°16' W 076°34'0 0.0
2017-Dec-12 08:31N 39°16' W 076°34'0 0.0
2017-Dec-12 08:01N 39°16' W 076°34'0 0.0
2017-Dec-12 07:30N 39°16' W 076°34'0 0.0
2017-Dec-12 07:01N 39°16' W 076°34'0 0.0
2017-Dec-12 06:30N 39°16' W 076°34'0 0.0
2017-Dec-12 06:00N 39°16' W 076°34'0 0.0
2017-Dec-12 05:30N 39°16' W 076°34'0 0.0
2017-Dec-12 05:01N 39°16' W 076°34'0 0.0
2017-Dec-12 04:30N 39°16' W 076°34'0 0.0
2017-Dec-12 04:01N 39°16' W 076°34'2 3.4
2017-Dec-12 03:30N 39°15' W 076°32'0 0.8
2017-Dec-12 03:00N 39°15' W 076°32'2 3.6
2017-Dec-12 02:31N 39°16' W 076°34'0 0.3
2017-Dec-12 02:00N 39°16' W 076°34'0 0.0
2017-Dec-12 01:30N 39°16' W 076°34'0 0.0
2017-Dec-12 01:00N 39°16' W 076°34'0 0.0
2017-Dec-12 00:30N 39°16' W 076°34'0 0.0
2017-Dec-12 00:00N 39°16' W 076°34'0 0.0
2017-Dec-11 23:31N 39°16' W 076°34'0 0.0
2017-Dec-11 23:00N 39°16' W 076°34'0 0.0
2017-Dec-11 22:30N 39°16' W 076°34'0 0.0
2017-Dec-11 22:00N 39°16' W 076°34'1 1.9
2017-Dec-11 21:30N 39°15' W 076°35'1 1.1
2017-Dec-11 21:00N 39°15' W 076°34'1 1.7
2017-Dec-11 20:30N 39°15' W 076°33'0 0.9
2017-Dec-11 20:01N 39°15' W 076°34'1 2.2
2017-Dec-11 19:31N 39°16' W 076°34'0 0.0
2017-Dec-11 19:00N 39°16' W 076°34'0 0.0
2017-Dec-11 18:30N 39°16' W 076°34'0 0.0
2017-Dec-11 18:01N 39°16' W 076°34'0 0.0
2017-Dec-11 17:30N 39°16' W 076°34'2 3.5
2017-Dec-11 17:00N 39°15' W 076°32'0 0.4
2017-Dec-11 16:31N 39°15' W 076°32'1 2.4
2017-Dec-11 16:01N 39°14' W 076°33'1 2.7
2017-Dec-11 15:31N 39°13' W 076°32'3 6.3
2017-Dec-11 15:01N 39°16' W 076°34'0 0.7
2017-Dec-11 14:30N 39°16' W 076°34'0 0.0
2017-Dec-11 14:00N 39°16' W 076°34'0 0.0
2017-Dec-11 13:31N 39°16' W 076°34'0 0.0
2017-Dec-11 13:00N 39°16' W 076°34'0 0.0
2017-Dec-11 12:30N 39°16' W 076°34'0 0.2
2017-Dec-11 12:01N 39°16' W 076°34'0 0.0
2017-Dec-11 11:31N 39°16' W 076°34'0 0.0
2017-Dec-11 11:00N 39°16' W 076°34'1 1.1
2017-Dec-11 10:28N 39°15' W 076°34'0 0.0
2017-Dec-11 09:56N 39°15' W 076°34'0 0.0
2017-Dec-11 09:29N 39°15' W 076°34'0 0.0
2017-Dec-11 08:57N 39°15' W 076°34'0 0.0
2017-Dec-11 08:30N 39°15' W 076°34'0 0.0
2017-Dec-11 08:00N 39°15' W 076°34'0 0.0
2017-Dec-11 07:05N 39°15' W 076°34'0 0.1
2017-Dec-11 07:00N 39°15' W 076°34'1 2.5
2017-Dec-11 06:30N 39°15' W 076°32'0 0.3
2017-Dec-11 06:01N 39°15' W 076°32'0 0.0
2017-Dec-11 05:30N 39°15' W 076°32'1 1.8
2017-Dec-11 05:00N 39°14' W 076°33'3 6.5
2017-Dec-11 04:30N 39°12' W 076°29'0 0.3
2017-Dec-11 04:00N 39°12' W 076°29'2 3.3
2017-Dec-11 03:31N 39°11' W 076°27'2 3.7
2017-Dec-11 03:00N 39°12' W 076°30'4 7.5
2017-Dec-11 02:31N 39°14' W 076°33'2 3.5
2017-Dec-11 02:00N 39°16' W 076°34'0 0.0
2017-Dec-11 01:30N 39°16' W 076°34'0 0.0
2017-Dec-11 01:00N 39°16' W 076°34'0 0.0
2017-Dec-11 00:30N 39°16' W 076°34'0 0.0
2017-Dec-11 00:00N 39°16' W 076°34'0 0.0
2017-Dec-10 23:30N 39°16' W 076°34'0 0.0
2017-Dec-10 23:00N 39°16' W 076°34'0 0.0
2017-Dec-10 22:30N 39°16' W 076°34'0 0.0
2017-Dec-10 22:00N 39°16' W 076°34'0 0.0
2017-Dec-10 21:30N 39°16' W 076°34'0 0.0
2017-Dec-10 21:00N 39°16' W 076°34'1 2.0
2017-Dec-10 20:31N 39°16' W 076°36'1 2.6
2017-Dec-10 20:00N 39°15' W 076°34'1 2.2
2017-Dec-10 19:31N 39°15' W 076°33'1 1.7
2017-Dec-10 19:00N 39°15' W 076°32'1 2.2
2017-Dec-10 18:30N 39°14' W 076°32'1 1.6
2017-Dec-10 18:00N 39°15' W 076°32'2 3.5
2017-Dec-10 17:31N 39°15' W 076°35'0 0.6
2017-Dec-10 17:00N 39°15' W 076°35'0 0.0
2017-Dec-10 16:28N 39°15' W 076°35'0 0.0
2017-Dec-10 16:00N 39°15' W 076°35'0 0.1
2017-Dec-10 15:31N 39°15' W 076°35'1 1.8
2017-Dec-10 15:00N 39°16' W 076°34'0 0.0
2017-Dec-10 14:31N 39°16' W 076°34'0 0.0
2017-Dec-10 14:00N 39°16' W 076°34'0 0.0
2017-Dec-10 13:30N 39°16' W 076°34'0 0.0
2017-Dec-10 13:00N 39°16' W 076°34'0 0.0
2017-Dec-10 12:30N 39°16' W 076°34'0 0.0
2017-Dec-10 12:00N 39°16' W 076°34'1 1.6
2017-Dec-10 11:30N 39°15' W 076°35'1 2.9
2017-Dec-10 11:00N 39°14' W 076°33'1 1.8
2017-Dec-10 10:30N 39°14' W 076°32'0 0.0
2017-Dec-10 10:00N 39°14' W 076°32'0 0.0
2017-Dec-10 09:30N 39°14' W 076°32'0 0.0
2017-Dec-10 09:00N 39°14' W 076°32'0 0.0
2017-Dec-10 08:30N 39°14' W 076°32'0 0.2
2017-Dec-10 08:00N 39°14' W 076°32'1 2.0
2017-Dec-10 07:30N 39°13' W 076°32'3 6.5
2017-Dec-10 07:00N 39°16' W 076°34'0 0.0
2017-Dec-10 06:30N 39°16' W 076°34'0 0.0
2017-Dec-10 06:00N 39°16' W 076°34'0 0.0
2017-Dec-10 05:30N 39°16' W 076°34'0 0.0
2017-Dec-10 05:00N 39°16' W 076°34'0 0.0
2017-Dec-10 04:30N 39°16' W 076°34'0 0.0
2017-Dec-10 04:00N 39°16' W 076°34'0 0.0
2017-Dec-10 03:30N 39°16' W 076°34'0 0.0
2017-Dec-10 03:00N 39°16' W 076°34'0 0.0
2017-Dec-10 02:30N 39°16' W 076°34'0 0.0
2017-Dec-10 02:00N 39°16' W 076°34'0 0.0
2017-Dec-10 01:30N 39°16' W 076°34'1 1.8
2017-Dec-10 01:00N 39°15' W 076°33'0 0.7
2017-Dec-10 00:30N 39°15' W 076°33'0 0.2
2017-Dec-10 00:00N 39°15' W 076°33'1 2.2
2017-Dec-09 23:30N 39°16' W 076°34'0 0.0
2017-Dec-09 23:00N 39°16' W 076°34'0 0.0
2017-Dec-09 22:30N 39°16' W 076°34'0 0.0
2017-Dec-09 22:00N 39°16' W 076°34'0 0.0
2017-Dec-09 21:30N 39°16' W 076°34'0 0.0
2017-Dec-09 21:00N 39°16' W 076°34'0 0.0
2017-Dec-09 20:30N 39°16' W 076°34'0 0.0
2017-Dec-09 20:00N 39°16' W 076°34'0 0.0
2017-Dec-09 19:30N 39°16' W 076°34'0 0.0
2017-Dec-09 19:00N 39°16' W 076°34'0 0.0
2017-Dec-09 18:30N 39°16' W 076°34'0 0.0
2017-Dec-09 18:00N 39°16' W 076°34'0 0.0
2017-Dec-09 17:30N 39°16' W 076°34'0 0.0
2017-Dec-09 17:00N 39°16' W 076°34'0 0.0
2017-Dec-09 16:30N 39°16' W 076°34'0 0.0
2017-Dec-09 16:00N 39°16' W 076°34'0 0.0
2017-Dec-09 15:30N 39°16' W 076°34'0 0.0
2017-Dec-09 15:00N 39°16' W 076°34'0 0.0
2017-Dec-09 14:30N 39°16' W 076°34'0 0.0
2017-Dec-09 14:00N 39°16' W 076°34'0 0.0
2017-Dec-09 13:30N 39°16' W 076°34'0 0.0
2017-Dec-09 13:00N 39°16' W 076°34'0 0.0
2017-Dec-09 12:30N 39°16' W 076°34'0 0.0
2017-Dec-09 12:00N 39°16' W 076°34'0 0.0
2017-Dec-09 11:30N 39°16' W 076°34'0 0.0
2017-Dec-09 11:00N 39°16' W 076°34'0 0.0
2017-Dec-09 10:30N 39°16' W 076°34'0 0.0
2017-Dec-09 10:00N 39°16' W 076°34'0 0.0
2017-Dec-09 09:30N 39°16' W 076°34'0 0.0
2017-Dec-09 09:00N 39°16' W 076°34'0 0.0
2017-Dec-09 08:30N 39°16' W 076°34'0 0.0
2017-Dec-09 08:00N 39°16' W 076°34'0 0.0
2017-Dec-09 07:30N 39°16' W 076°34'0 0.0
2017-Dec-09 07:00N 39°16' W 076°34'0 0.0
2017-Dec-09 06:30N 39°16' W 076°34'0 0.0
2017-Dec-09 06:00N 39°16' W 076°34'0 0.0
2017-Dec-09 05:30N 39°16' W 076°34'0 0.0
2017-Dec-09 05:00N 39°16' W 076°34'0 0.0
2017-Dec-09 04:30N 39°16' W 076°34'0 0.0
2017-Dec-09 04:00N 39°16' W 076°34'0 0.0
2017-Dec-09 03:30N 39°16' W 076°34'0 0.0
2017-Dec-09 03:00N 39°16' W 076°34'0 0.0
2017-Dec-09 02:30N 39°16' W 076°34'0 0.0
2017-Dec-09 02:00N 39°16' W 076°34'0 0.0
2017-Dec-09 01:30N 39°16' W 076°34'0 0.0
2017-Dec-09 01:00N 39°16' W 076°34'0 0.0
2017-Dec-09 00:30N 39°16' W 076°34'2 4.8
2017-Dec-09 00:00N 39°14' W 076°33'2 3.2
2017-Dec-08 23:30N 39°13' W 076°34'0 0.1
2017-Dec-08 23:00N 39°13' W 076°35'2 2.8
2017-Dec-08 22:27N 39°14' W 076°33'2 5.2
2017-Dec-08 22:01N 39°16' W 076°34'0 0.0
2017-Dec-08 21:31N 39°16' W 076°34'0 0.0
2017-Dec-08 21:01N 39°16' W 076°34'0 0.0
2017-Dec-08 20:31N 39°16' W 076°34'0 0.0
2017-Dec-08 20:00N 39°16' W 076°34'0 0.0
2017-Dec-08 19:31N 39°16' W 076°34'0 0.0
2017-Dec-08 19:01N 39°16' W 076°34'0 0.0
2017-Dec-08 18:30N 39°16' W 076°34'0 0.0
2017-Dec-08 18:01N 39°16' W 076°34'0 0.0
2017-Dec-08 17:30N 39°16' W 076°34'0 0.0
2017-Dec-08 17:01N 39°16' W 076°34'0 0.0
2017-Dec-08 16:31N 39°16' W 076°34'0 0.0
2017-Dec-08 16:00N 39°16' W 076°34'0 0.0
2017-Dec-08 15:31N 39°16' W 076°34'0 0.0
2017-Dec-08 15:00N 39°16' W 076°34'2 4.2
2017-Dec-08 14:30N 39°15' W 076°32'0 0.9
2017-Dec-08 14:00N 39°14' W 076°32'1 2.0
2017-Dec-08 13:30N 39°13' W 076°32'3 6.4
2017-Dec-08 13:00N 39°16' W 076°34'0 0.5
2017-Dec-08 12:30N 39°16' W 076°34'0 0.0
2017-Dec-08 12:00N 39°16' W 076°34'0 0.0
2017-Dec-08 11:30N 39°16' W 076°34'0 0.0
2017-Dec-08 11:00N 39°16' W 076°34'0 0.0
2017-Dec-08 10:30N 39°16' W 076°34'0 0.0
2017-Dec-08 10:00N 39°16' W 076°34'0 0.0
2017-Dec-08 09:30N 39°16' W 076°34'0 0.0
2017-Dec-08 09:00N 39°16' W 076°34'0 0.0
2017-Dec-08 08:30N 39°16' W 076°34'0 0.0
2017-Dec-08 08:00N 39°16' W 076°34'0 0.0
2017-Dec-08 07:30N 39°16' W 076°34'0 0.0
2017-Dec-08 07:00N 39°16' W 076°34'0 0.0
2017-Dec-08 06:30N 39°16' W 076°34'0 0.0
2017-Dec-08 06:00N 39°16' W 076°34'0 0.0
2017-Dec-08 05:30N 39°16' W 076°34'0 0.0
2017-Dec-08 05:00N 39°16' W 076°34'0 0.0
2017-Dec-08 04:30N 39°16' W 076°34'0 0.0
2017-Dec-08 04:00N 39°16' W 076°34'0 0.0
2017-Dec-08 03:30N 39°16' W 076°34'0 0.0
2017-Dec-08 03:00N 39°16' W 076°34'0 0.0
2017-Dec-08 02:30N 39°16' W 076°34'0 0.0
2017-Dec-08 02:00N 39°16' W 076°34'0 0.0
2017-Dec-08 01:30N 39°16' W 076°34'0 0.0
2017-Dec-08 01:00N 39°16' W 076°34'0 0.0
2017-Dec-08 00:30N 39°16' W 076°34'0 0.0
2017-Dec-08 00:00N 39°16' W 076°34'0 0.0
2017-Dec-07 23:30N 39°16' W 076°34'0 0.0
2017-Dec-07 23:00N 39°16' W 076°34'0 0.0
2017-Dec-07 22:30N 39°16' W 076°34'0 0.0
2017-Dec-07 22:00N 39°16' W 076°34'0 0.0
2017-Dec-07 21:30N 39°16' W 076°34'0 0.0
2017-Dec-07 21:00N 39°16' W 076°34'0 0.0
2017-Dec-07 20:30N 39°16' W 076°34'0 0.0
2017-Dec-07 20:00N 39°16' W 076°34'0 0.0
2017-Dec-07 19:30N 39°16' W 076°34'0 0.0
2017-Dec-07 19:00N 39°16' W 076°34'0 0.0
2017-Dec-07 18:30N 39°16' W 076°34'0 0.0
2017-Dec-07 18:00N 39°16' W 076°34'0 0.0
2017-Dec-07 17:30N 39°16' W 076°34'0 0.0
2017-Dec-07 17:00N 39°16' W 076°34'0 0.0
2017-Dec-07 16:30N 39°16' W 076°34'0 0.0
2017-Dec-07 16:00N 39°16' W 076°34'0 0.0
2017-Dec-07 15:30N 39°16' W 076°34'0 0.0
2017-Dec-07 15:00N 39°16' W 076°34'0 0.0
2017-Dec-07 14:30N 39°16' W 076°34'0 0.0
2017-Dec-07 14:00N 39°16' W 076°34'0 0.0
2017-Dec-07 13:30N 39°16' W 076°34'0 0.0
2017-Dec-07 13:00N 39°16' W 076°34'0 0.0
2017-Dec-07 12:30N 39°16' W 076°34'0 0.0
2017-Dec-07 12:00N 39°16' W 076°34'0 0.0
2017-Dec-07 11:30N 39°16' W 076°34'0 0.7
2017-Dec-07 11:00N 39°16' W 076°35'1 1.9
2017-Dec-07 10:30N 39°17' W 076°36'1 2.0
2017-Dec-07 10:00N 39°16' W 076°35'1 2.4
2017-Dec-07 09:30N 39°15' W 076°34'1 2.0
2017-Dec-07 09:00N 39°16' W 076°34'0 0.0
2017-Dec-07 08:30N 39°16' W 076°34'0 0.0
2017-Dec-07 08:00N 39°16' W 076°34'0 0.0
2017-Dec-07 07:30N 39°16' W 076°34'0 0.0
2017-Dec-07 07:00N 39°16' W 076°34'0 0.0
2017-Dec-07 06:30N 39°16' W 076°34'0 0.0
2017-Dec-07 06:00N 39°16' W 076°34'0 0.0
2017-Dec-07 05:30N 39°16' W 076°34'0 0.0
2017-Dec-07 05:00N 39°16' W 076°34'0 0.0
2017-Dec-07 04:30N 39°16' W 076°34'0 0.0
2017-Dec-07 04:00N 39°16' W 076°34'1 1.0
2017-Dec-07 03:30N 39°15' W 076°34'2 4.0
2017-Dec-07 03:00N 39°13' W 076°35'0 0.4
2017-Dec-07 02:30N 39°13' W 076°34'2 3.3
2017-Dec-07 02:00N 39°14' W 076°33'1 0.4
2017-Dec-07 00:34N 39°15' W 076°32'0 0.0
2017-Dec-07 00:30N 39°15' W 076°32'0 0.7
2017-Dec-07 00:00N 39°15' W 076°32'2 3.4
2017-Dec-06 23:30N 39°13' W 076°32'2 4.1
2017-Dec-06 23:00N 39°15' W 076°33'0 0.3
2017-Dec-06 22:30N 39°15' W 076°33'1 2.1
2017-Dec-06 22:00N 39°16' W 076°34'0 0.0
2017-Dec-06 21:30N 39°16' W 076°34'0 0.0
2017-Dec-06 21:00N 39°16' W 076°34'  
Track history (hours):
 
Tides and Currents Weather Stations Pressure Air Temp Water Temp Dewpoint Dewpoint Depression Visibility Wind Speed Wind Dir Waves Ship Positions

Harriet Moran

Owner: MORAN TOWING CORPORATION, New Canaan, CT. More information available from US FCC via Universal Licensing System and Coast Guard Vessel Documentation Center.

Last reported at 2017-Dec-15 08:01 UTC. Time now 2017-Dec-15 08:14 UTC.
Position N 39°16' W 076°34'.

Length 28 m; draft 4.4 m.

Type: Tug. MMSI: 367306490.

Date/timePositionNaut miles runAvg speedWind from/ knotsBaromVisibWave heightAir tempDewpointWater temp
2017-Dec-15 08:01N 39°16' W 076°34'0 0.0
2017-Dec-15 07:30N 39°16' W 076°34'0 0.0
2017-Dec-15 07:01N 39°16' W 076°34'0 0.0
2017-Dec-15 06:31N 39°16' W 076°34'0 0.0
2017-Dec-15 06:01N 39°16' W 076°34'0 0.0
2017-Dec-15 05:30N 39°16' W 076°34'0 0.0
2017-Dec-15 05:01N 39°16' W 076°34'0 0.0
2017-Dec-15 04:30N 39°16' W 076°34'0 0.0
2017-Dec-15 04:01N 39°16' W 076°34'1 0.6
2017-Dec-15 02:29N 39°15' W 076°33'0 0.2
2017-Dec-15 01:00N 39°15' W 076°33'1 2.5
2017-Dec-15 00:31N 39°14' W 076°32'1 0.1
2017-Dec-14 18:31N 39°15' W 076°33'0 0.5
2017-Dec-14 18:01N 39°15' W 076°32'0 0.3
2017-Dec-14 17:30N 39°15' W 076°32'2 3.1
2017-Dec-14 16:59N 39°13' W 076°32'1 3.1
2017-Dec-14 16:30N 39°14' W 076°33'2 3.8
2017-Dec-14 16:01N 39°16' W 076°34'0 0.0
2017-Dec-14 15:01N 39°16' W 076°34'0 0.0
2017-Dec-14 14:31N 39°16' W 076°34'0 0.0
2017-Dec-14 14:01N 39°16' W 076°34'0 0.0
2017-Dec-14 13:31N 39°16' W 076°34'0 0.0
2017-Dec-14 13:01N 39°16' W 076°34'0 0.0
2017-Dec-14 12:31N 39°16' W 076°34'0 0.0
2017-Dec-14 12:01N 39°16' W 076°34'0 0.0
2017-Dec-14 11:31N 39°16' W 076°34'0 0.0
2017-Dec-14 11:00N 39°16' W 076°34'0 0.0
2017-Dec-14 10:31N 39°16' W 076°34'0 0.0
2017-Dec-14 10:01N 39°16' W 076°34'1 1.2
2017-Dec-14 09:30N 39°15' W 076°34'2 4.1
2017-Dec-14 09:00N 39°13' W 076°34'1 1.5
2017-Dec-14 08:30N 39°13' W 076°35'1 1.6
2017-Dec-14 08:01N 39°13' W 076°34'1 2.3
2017-Dec-14 07:24N 39°14' W 076°33'0 0.7
2017-Dec-14 06:50N 39°15' W 076°33'1 3.8
2017-Dec-14 06:30N 39°15' W 076°34'1 1.2
2017-Dec-14 06:01N 39°16' W 076°34'0 0.0
2017-Dec-14 05:30N 39°16' W 076°34'0 0.0
2017-Dec-14 05:00N 39°16' W 076°34'0 0.1
2017-Dec-14 04:31N 39°16' W 076°34'0 0.0
2017-Dec-14 04:01N 39°16' W 076°34'0 0.0
2017-Dec-14 03:31N 39°16' W 076°34'0 0.0
2017-Dec-14 03:01N 39°16' W 076°34'0 0.0
2017-Dec-14 02:31N 39°16' W 076°34'0 0.0
2017-Dec-14 02:01N 39°16' W 076°34'0 0.0
2017-Dec-14 01:31N 39°16' W 076°34'0 0.0
2017-Dec-14 01:01N 39°16' W 076°34'1 1.6
2017-Dec-14 00:31N 39°15' W 076°34'1 1.1
2017-Dec-13 23:55N 39°15' W 076°34'0 0.2
2017-Dec-13 23:31N 39°14' W 076°34'0 0.0
2017-Dec-13 23:00N 39°14' W 076°34'2 3.8
2017-Dec-13 22:30N 39°16' W 076°36'0 0.4
2017-Dec-13 22:01N 39°16' W 076°36'1 2.0
2017-Dec-13 21:30N 39°16' W 076°34'0 0.0
2017-Dec-13 21:01N 39°16' W 076°34'0 0.0
2017-Dec-13 20:31N 39°16' W 076°34'0 0.0
2017-Dec-13 20:01N 39°16' W 076°34'0 0.0
2017-Dec-13 19:31N 39°16' W 076°34'0 0.0
2017-Dec-13 19:01N 39°16' W 076°34'0 0.0
2017-Dec-13 18:31N 39°16' W 076°34'0 0.0
2017-Dec-13 18:01N 39°16' W 076°34'0 0.0
2017-Dec-13 17:31N 39°16' W 076°34'0 0.0
2017-Dec-13 17:01N 39°16' W 076°34'0 0.0
2017-Dec-13 16:29N 39°16' W 076°34'2 4.3
2017-Dec-13 15:56N 39°14' W 076°34'0 0.5
2017-Dec-13 15:30N 39°13' W 076°34'1 1.6
2017-Dec-13 15:00N 39°13' W 076°35'3 5.8
2017-Dec-13 14:30N 39°16' W 076°34'0 0.8
2017-Dec-13 14:00N 39°16' W 076°34'0 0.0
2017-Dec-13 13:30N 39°16' W 076°34'0 0.0
2017-Dec-13 13:00N 39°16' W 076°34'0 0.0
2017-Dec-13 12:30N 39°16' W 076°34'0 0.0
2017-Dec-13 12:00N 39°16' W 076°34'0 0.0
2017-Dec-13 11:31N 39°16' W 076°34'0 0.0
2017-Dec-13 11:01N 39°16' W 076°34'0 0.0
2017-Dec-13 10:31N 39°16' W 076°34'0 0.0
2017-Dec-13 10:00N 39°16' W 076°34'0 0.0
2017-Dec-13 09:30N 39°16' W 076°34'0 0.0
2017-Dec-13 09:01N 39°16' W 076°34'0 0.0
2017-Dec-13 08:30N 39°16' W 076°34'0 0.0
2017-Dec-13 08:00N 39°16' W 076°34'0 0.0
2017-Dec-13 07:30N 39°16' W 076°34'0 0.0
2017-Dec-13 07:00N 39°16' W 076°34'0 0.0
2017-Dec-13 06:31N 39°16' W 076°34'0 0.0
2017-Dec-13 06:01N 39°16' W 076°34'0 0.0
2017-Dec-13 05:30N 39°16' W 076°34'0 0.0
2017-Dec-13 05:00N 39°16' W 076°34'0 0.0
2017-Dec-13 04:30N 39°16' W 076°34'0 0.0
2017-Dec-13 04:00N 39°16' W 076°34'0 0.0
2017-Dec-13 03:30N 39°16' W 076°34'0 0.0
2017-Dec-13 03:00N 39°16' W 076°34'0 0.0
2017-Dec-13 02:30N 39°16' W 076°34'0 0.0
2017-Dec-13 02:00N 39°16' W 076°34'0 0.0
2017-Dec-13 01:30N 39°16' W 076°34'0 0.0
2017-Dec-13 01:00N 39°16' W 076°34'0 0.0
2017-Dec-13 00:30N 39°16' W 076°34'0 0.0
2017-Dec-13 00:00N 39°16' W 076°34'0 0.0
2017-Dec-12 23:30N 39°16' W 076°34'0 0.0
2017-Dec-12 23:00N 39°16' W 076°34'0 0.0
2017-Dec-12 22:31N 39°16' W 076°34'0 0.0
2017-Dec-12 22:01N 39°16' W 076°34'0 0.0
2017-Dec-12 21:30N 39°16' W 076°34'0 0.0
2017-Dec-12 21:00N 39°16' W 076°34'0 0.0
2017-Dec-12 20:31N 39°16' W 076°34'0 0.0
2017-Dec-12 20:00N 39°16' W 076°34'0 0.0
2017-Dec-12 19:31N 39°16' W 076°34'0 0.0
2017-Dec-12 19:01N 39°16' W 076°34'1 1.8
2017-Dec-12 18:31N 39°15' W 076°33'1 1.8
2017-Dec-12 17:58N 39°15' W 076°32'0 0.5
2017-Dec-12 17:31N 39°15' W 076°32'0 0.0
2017-Dec-12 17:00N 39°15' W 076°32'0 0.5
2017-Dec-12 16:30N 39°15' W 076°32'1 2.0
2017-Dec-12 16:01N 39°15' W 076°34'1 1.6
2017-Dec-12 15:30N 39°15' W 076°35'1 1.9
2017-Dec-12 15:01N 39°16' W 076°34'0 0.0
2017-Dec-12 14:30N 39°16' W 076°34'0 0.0
2017-Dec-12 14:01N 39°16' W 076°34'0 0.0
2017-Dec-12 13:31N 39°16' W 076°34'0 0.0
2017-Dec-12 13:00N 39°16' W 076°34'0 0.0
2017-Dec-12 12:31N 39°16' W 076°34'0 0.0
2017-Dec-12 12:00N 39°16' W 076°34'0 0.0
2017-Dec-12 11:30N 39°16' W 076°34'0 0.0
2017-Dec-12 11:01N 39°16' W 076°34'0 0.0
2017-Dec-12 10:30N 39°16' W 076°34'0 0.0
2017-Dec-12 10:00N 39°16' W 076°34'0 0.0
2017-Dec-12 09:30N 39°16' W 076°34'0 0.0
2017-Dec-12 09:00N 39°16' W 076°34'0 0.0
2017-Dec-12 08:31N 39°16' W 076°34'0 0.0
2017-Dec-12 08:01N 39°16' W 076°34'0 0.0
2017-Dec-12 07:30N 39°16' W 076°34'0 0.0
2017-Dec-12 07:01N 39°16' W 076°34'0 0.0
2017-Dec-12 06:30N 39°16' W 076°34'0 0.0
2017-Dec-12 06:00N 39°16' W 076°34'0 0.0
2017-Dec-12 05:30N 39°16' W 076°34'0 0.0
2017-Dec-12 05:01N 39°16' W 076°34'0 0.0
2017-Dec-12 04:30N 39°16' W 076°34'0 0.0
2017-Dec-12 04:01N 39°16' W 076°34'2 3.4
2017-Dec-12 03:30N 39°15' W 076°32'0 0.8
2017-Dec-12 03:00N 39°15' W 076°32'2 3.6
2017-Dec-12 02:31N 39°16' W 076°34'0 0.3
2017-Dec-12 02:00N 39°16' W 076°34'0 0.0
2017-Dec-12 01:30N 39°16' W 076°34'0 0.0
2017-Dec-12 01:00N 39°16' W 076°34'0 0.0
2017-Dec-12 00:30N 39°16' W 076°34'0 0.0
2017-Dec-12 00:00N 39°16' W 076°34'0 0.0
2017-Dec-11 23:31N 39°16' W 076°34'0 0.0
2017-Dec-11 23:00N 39°16' W 076°34'0 0.0
2017-Dec-11 22:30N 39°16' W 076°34'0 0.0
2017-Dec-11 22:00N 39°16' W 076°34'1 1.9
2017-Dec-11 21:30N 39°15' W 076°35'1 1.1
2017-Dec-11 21:00N 39°15' W 076°34'1 1.7
2017-Dec-11 20:30N 39°15' W 076°33'0 0.9
2017-Dec-11 20:01N 39°15' W 076°34'1 2.2
2017-Dec-11 19:31N 39°16' W 076°34'0 0.0
2017-Dec-11 19:00N 39°16' W 076°34'0 0.0
2017-Dec-11 18:30N 39°16' W 076°34'0 0.0
2017-Dec-11 18:01N 39°16' W 076°34'0 0.0
2017-Dec-11 17:30N 39°16' W 076°34'2 3.5
2017-Dec-11 17:00N 39°15' W 076°32'0 0.4
2017-Dec-11 16:31N 39°15' W 076°32'1 2.4
2017-Dec-11 16:01N 39°14' W 076°33'1 2.7
2017-Dec-11 15:31N 39°13' W 076°32'3 6.3
2017-Dec-11 15:01N 39°16' W 076°34'0 0.7
2017-Dec-11 14:30N 39°16' W 076°34'0 0.0
2017-Dec-11 14:00N 39°16' W 076°34'0 0.0
2017-Dec-11 13:31N 39°16' W 076°34'0 0.0
2017-Dec-11 13:00N 39°16' W 076°34'0 0.0
2017-Dec-11 12:30N 39°16' W 076°34'0 0.2
2017-Dec-11 12:01N 39°16' W 076°34'0 0.0
2017-Dec-11 11:31N 39°16' W 076°34'0 0.0
2017-Dec-11 11:00N 39°16' W 076°34'1 1.1
2017-Dec-11 10:28N 39°15' W 076°34'0 0.0
2017-Dec-11 09:56N 39°15' W 076°34'0 0.0
2017-Dec-11 09:29N 39°15' W 076°34'0 0.0
2017-Dec-11 08:57N 39°15' W 076°34'0 0.0
2017-Dec-11 08:30N 39°15' W 076°34'0 0.0
2017-Dec-11 08:00N 39°15' W 076°34'0 0.0
2017-Dec-11 07:05N 39°15' W 076°34'0 0.1
2017-Dec-11 07:00N 39°15' W 076°34'1 2.5
2017-Dec-11 06:30N 39°15' W 076°32'0 0.3
2017-Dec-11 06:01N 39°15' W 076°32'0 0.0
2017-Dec-11 05:30N 39°15' W 076°32'1 1.8
2017-Dec-11 05:00N 39°14' W 076°33'3 6.5
2017-Dec-11 04:30N 39°12' W 076°29'0 0.3
2017-Dec-11 04:00N 39°12' W 076°29'2 3.3
2017-Dec-11 03:31N 39°11' W 076°27'2 3.7
2017-Dec-11 03:00N 39°12' W 076°30'4 7.5
2017-Dec-11 02:31N 39°14' W 076°33'2 3.5
2017-Dec-11 02:00N 39°16' W 076°34'0 0.0
2017-Dec-11 01:30N 39°16' W 076°34'0 0.0
2017-Dec-11 01:00N 39°16' W 076°34'0 0.0
2017-Dec-11 00:30N 39°16' W 076°34'0 0.0
2017-Dec-11 00:00N 39°16' W 076°34'0 0.0
2017-Dec-10 23:30N 39°16' W 076°34'0 0.0
2017-Dec-10 23:00N 39°16' W 076°34'0 0.0
2017-Dec-10 22:30N 39°16' W 076°34'0 0.0
2017-Dec-10 22:00N 39°16' W 076°34'0 0.0
2017-Dec-10 21:30N 39°16' W 076°34'0 0.0
2017-Dec-10 21:00N 39°16' W 076°34'1 2.0
2017-Dec-10 20:31N 39°16' W 076°36'1 2.6
2017-Dec-10 20:00N 39°15' W 076°34'1 2.2
2017-Dec-10 19:31N 39°15' W 076°33'1 1.7
2017-Dec-10 19:00N 39°15' W 076°32'1 2.2
2017-Dec-10 18:30N 39°14' W 076°32'1 1.6
2017-Dec-10 18:00N 39°15' W 076°32'2 3.5
2017-Dec-10 17:31N 39°15' W 076°35'0 0.6
2017-Dec-10 17:00N 39°15' W 076°35'0 0.0
2017-Dec-10 16:28N 39°15' W 076°35'0 0.0
2017-Dec-10 16:00N 39°15' W 076°35'0 0.1
2017-Dec-10 15:31N 39°15' W 076°35'1 1.8
2017-Dec-10 15:00N 39°16' W 076°34'0 0.0
2017-Dec-10 14:31N 39°16' W 076°34'0 0.0
2017-Dec-10 14:00N 39°16' W 076°34'0 0.0
2017-Dec-10 13:30N 39°16' W 076°34'0 0.0
2017-Dec-10 13:00N 39°16' W 076°34'0 0.0
2017-Dec-10 12:30N 39°16' W 076°34'0 0.0
2017-Dec-10 12:00N 39°16' W 076°34'1 1.6
2017-Dec-10 11:30N 39°15' W 076°35'1 2.9
2017-Dec-10 11:00N 39°14' W 076°33'1 1.8
2017-Dec-10 10:30N 39°14' W 076°32'0 0.0
2017-Dec-10 10:00N 39°14' W 076°32'0 0.0
2017-Dec-10 09:30N 39°14' W 076°32'0 0.0
2017-Dec-10 09:00N 39°14' W 076°32'0 0.0
2017-Dec-10 08:30N 39°14' W 076°32'0 0.2
2017-Dec-10 08:00N 39°14' W 076°32'1 2.0
2017-Dec-10 07:30N 39°13' W 076°32'3 6.5
2017-Dec-10 07:00N 39°16' W 076°34'0 0.0
2017-Dec-10 06:30N 39°16' W 076°34'0 0.0
2017-Dec-10 06:00N 39°16' W 076°34'0 0.0
2017-Dec-10 05:30N 39°16' W 076°34'0 0.0
2017-Dec-10 05:00N 39°16' W 076°34'0 0.0
2017-Dec-10 04:30N 39°16' W 076°34'0 0.0
2017-Dec-10 04:00N 39°16' W 076°34'0 0.0
2017-Dec-10 03:30N 39°16' W 076°34'0 0.0
2017-Dec-10 03:00N 39°16' W 076°34'0 0.0
2017-Dec-10 02:30N 39°16' W 076°34'0 0.0
2017-Dec-10 02:00N 39°16' W 076°34'0 0.0
2017-Dec-10 01:30N 39°16' W 076°34'1 1.8
2017-Dec-10 01:00N 39°15' W 076°33'0 0.7
2017-Dec-10 00:30N 39°15' W 076°33'0 0.2
2017-Dec-10 00:00N 39°15' W 076°33'1 2.2
2017-Dec-09 23:30N 39°16' W 076°34'0 0.0
2017-Dec-09 23:00N 39°16' W 076°34'0 0.0
2017-Dec-09 22:30N 39°16' W 076°34'0 0.0
2017-Dec-09 22:00N 39°16' W 076°34'0 0.0
2017-Dec-09 21:30N 39°16' W 076°34'0 0.0
2017-Dec-09 21:00N 39°16' W 076°34'0 0.0
2017-Dec-09 20:30N 39°16' W 076°34'0 0.0
2017-Dec-09 20:00N 39°16' W 076°34'0 0.0
2017-Dec-09 19:30N 39°16' W 076°34'0 0.0
2017-Dec-09 19:00N 39°16' W 076°34'0 0.0
2017-Dec-09 18:30N 39°16' W 076°34'0 0.0
2017-Dec-09 18:00N 39°16' W 076°34'0 0.0
2017-Dec-09 17:30N 39°16' W 076°34'0 0.0
2017-Dec-09 17:00N 39°16' W 076°34'0 0.0
2017-Dec-09 16:30N 39°16' W 076°34'0 0.0
2017-Dec-09 16:00N 39°16' W 076°34'0 0.0
2017-Dec-09 15:30N 39°16' W 076°34'0 0.0
2017-Dec-09 15:00N 39°16' W 076°34'0 0.0
2017-Dec-09 14:30N 39°16' W 076°34'0 0.0
2017-Dec-09 14:00N 39°16' W 076°34'0 0.0
2017-Dec-09 13:30N 39°16' W 076°34'0 0.0
2017-Dec-09 13:00N 39°16' W 076°34'0 0.0
2017-Dec-09 12:30N 39°16' W 076°34'0 0.0
2017-Dec-09 12:00N 39°16' W 076°34'0 0.0
2017-Dec-09 11:30N 39°16' W 076°34'0 0.0
2017-Dec-09 11:00N 39°16' W 076°34'0 0.0
2017-Dec-09 10:30N 39°16' W 076°34'0 0.0
2017-Dec-09 10:00N 39°16' W 076°34'0 0.0
2017-Dec-09 09:30N 39°16' W 076°34'0 0.0
2017-Dec-09 09:00N 39°16' W 076°34'0 0.0
2017-Dec-09 08:30N 39°16' W 076°34'0 0.0
2017-Dec-09 08:00N 39°16' W 076°34'0 0.0
2017-Dec-09 07:30N 39°16' W 076°34'0 0.0
2017-Dec-09 07:00N 39°16' W 076°34'0 0.0
2017-Dec-09 06:30N 39°16' W 076°34'0 0.0
2017-Dec-09 06:00N 39°16' W 076°34'0 0.0
2017-Dec-09 05:30N 39°16' W 076°34'0 0.0
2017-Dec-09 05:00N 39°16' W 076°34'0 0.0
2017-Dec-09 04:30N 39°16' W 076°34'0 0.0
2017-Dec-09 04:00N 39°16' W 076°34'0 0.0
2017-Dec-09 03:30N 39°16' W 076°34'0 0.0
2017-Dec-09 03:00N 39°16' W 076°34'0 0.0
2017-Dec-09 02:30N 39°16' W 076°34'0 0.0
2017-Dec-09 02:00N 39°16' W 076°34'0 0.0
2017-Dec-09 01:30N 39°16' W 076°34'0 0.0
2017-Dec-09 01:00N 39°16' W 076°34'0 0.0
2017-Dec-09 00:30N 39°16' W 076°34'2 4.8
2017-Dec-09 00:00N 39°14' W 076°33'2 3.2
2017-Dec-08 23:30N 39°13' W 076°34'0 0.1
2017-Dec-08 23:00N 39°13' W 076°35'2 2.8
2017-Dec-08 22:27N 39°14' W 076°33'2 5.2
2017-Dec-08 22:01N 39°16' W 076°34'0 0.0
2017-Dec-08 21:31N 39°16' W 076°34'0 0.0
2017-Dec-08 21:01N 39°16' W 076°34'0 0.0
2017-Dec-08 20:31N 39°16' W 076°34'0 0.0
2017-Dec-08 20:00N 39°16' W 076°34'0 0.0
2017-Dec-08 19:31N 39°16' W 076°34'0 0.0
2017-Dec-08 19:01N 39°16' W 076°34'0 0.0
2017-Dec-08 18:30N 39°16' W 076°34'0 0.0
2017-Dec-08 18:01N 39°16' W 076°34'0 0.0
2017-Dec-08 17:30N 39°16' W 076°34'0 0.0
2017-Dec-08 17:01N 39°16' W 076°34'0 0.0
2017-Dec-08 16:31N 39°16' W 076°34'0 0.0
2017-Dec-08 16:00N 39°16' W 076°34'0 0.0
2017-Dec-08 15:31N 39°16' W 076°34'0 0.0
2017-Dec-08 15:00N 39°16' W 076°34'2 4.2
2017-Dec-08 14:30N 39°15' W 076°32'0 0.9
2017-Dec-08 14:00N 39°14' W 076°32'1 2.0
2017-Dec-08 13:30N 39°13' W 076°32'3 6.4
2017-Dec-08 13:00N 39°16' W 076°34'0 0.5
2017-Dec-08 12:30N 39°16' W 076°34'0 0.0
2017-Dec-08 12:00N 39°16' W 076°34'0 0.0
2017-Dec-08 11:30N 39°16' W 076°34'0 0.0
2017-Dec-08 11:00N 39°16' W 076°34'0 0.0
2017-Dec-08 10:30N 39°16' W 076°34'0 0.0
2017-Dec-08 10:00N 39°16' W 076°34'0 0.0
2017-Dec-08 09:30N 39°16' W 076°34'0 0.0
2017-Dec-08 09:00N 39°16' W 076°34'0 0.0
2017-Dec-08 08:30N 39°16' W 076°34'0 0.0
2017-Dec-08 08:00N 39°16' W 076°34'0 0.0
2017-Dec-08 07:30N 39°16' W 076°34'0 0.0
2017-Dec-08 07:00N 39°16' W 076°34'0 0.0
2017-Dec-08 06:30N 39°16' W 076°34'0 0.0
2017-Dec-08 06:00N 39°16' W 076°34'0 0.0
2017-Dec-08 05:30N 39°16' W 076°34'0 0.0
2017-Dec-08 05:00N 39°16' W 076°34'0 0.0
2017-Dec-08 04:30N 39°16' W 076°34'0 0.0
2017-Dec-08 04:00N 39°16' W 076°34'0 0.0
2017-Dec-08 03:30N 39°16' W 076°34'0 0.0
2017-Dec-08 03:00N 39°16' W 076°34'0 0.0
2017-Dec-08 02:30N 39°16' W 076°34'0 0.0
2017-Dec-08 02:00N 39°16' W 076°34'0 0.0
2017-Dec-08 01:30N 39°16' W 076°34'0 0.0
2017-Dec-08 01:00N 39°16' W 076°34'0 0.0
2017-Dec-08 00:30N 39°16' W 076°34'0 0.0
2017-Dec-08 00:00N 39°16' W 076°34'0 0.0
2017-Dec-07 23:30N 39°16' W 076°34'0 0.0
2017-Dec-07 23:00N 39°16' W 076°34'0 0.0
2017-Dec-07 22:30N 39°16' W 076°34'0 0.0
2017-Dec-07 22:00N 39°16' W 076°34'0 0.0
2017-Dec-07 21:30N 39°16' W 076°34'0 0.0
2017-Dec-07 21:00N 39°16' W 076°34'0 0.0
2017-Dec-07 20:30N 39°16' W 076°34'0 0.0
2017-Dec-07 20:00N 39°16' W 076°34'0 0.0
2017-Dec-07 19:30N 39°16' W 076°34'0 0.0
2017-Dec-07 19:00N 39°16' W 076°34'0 0.0
2017-Dec-07 18:30N 39°16' W 076°34'0 0.0
2017-Dec-07 18:00N 39°16' W 076°34'0 0.0
2017-Dec-07 17:30N 39°16' W 076°34'0 0.0
2017-Dec-07 17:00N 39°16' W 076°34'0 0.0
2017-Dec-07 16:30N 39°16' W 076°34'0 0.0
2017-Dec-07 16:00N 39°16' W 076°34'0 0.0
2017-Dec-07 15:30N 39°16' W 076°34'0 0.0
2017-Dec-07 15:00N 39°16' W 076°34'0 0.0
2017-Dec-07 14:30N 39°16' W 076°34'0 0.0
2017-Dec-07 14:00N 39°16' W 076°34'0 0.0
2017-Dec-07 13:30N 39°16' W 076°34'0 0.0
2017-Dec-07 13:00N 39°16' W 076°34'0 0.0
2017-Dec-07 12:30N 39°16' W 076°34'0 0.0
2017-Dec-07 12:00N 39°16' W 076°34'0 0.0
2017-Dec-07 11:30N 39°16' W 076°34'0 0.7
2017-Dec-07 11:00N 39°16' W 076°35'1 1.9
2017-Dec-07 10:30N 39°17' W 076°36'1 2.0
2017-Dec-07 10:00N 39°16' W 076°35'1 2.4
2017-Dec-07 09:30N 39°15' W 076°34'1 2.0
2017-Dec-07 09:00N 39°16' W 076°34'0 0.0
2017-Dec-07 08:30N 39°16' W 076°34'0 0.0
2017-Dec-07 08:00N 39°16' W 076°34'0 0.0
2017-Dec-07 07:30N 39°16' W 076°34'0 0.0
2017-Dec-07 07:00N 39°16' W 076°34'0 0.0
2017-Dec-07 06:30N 39°16' W 076°34'0 0.0
2017-Dec-07 06:00N 39°16' W 076°34'0 0.0
2017-Dec-07 05:30N 39°16' W 076°34'0 0.0
2017-Dec-07 05:00N 39°16' W 076°34'0 0.0
2017-Dec-07 04:30N 39°16' W 076°34'0 0.0
2017-Dec-07 04:00N 39°16' W 076°34'1 1.0
2017-Dec-07 03:30N 39°15' W 076°34'2 4.0
2017-Dec-07 03:00N 39°13' W 076°35'0 0.4
2017-Dec-07 02:30N 39°13' W 076°34'2 3.3
2017-Dec-07 02:00N 39°14' W 076°33'1 0.4
2017-Dec-07 00:34N 39°15' W 076°32'0 0.0
2017-Dec-07 00:30N 39°15' W 076°32'0 0.7
2017-Dec-07 00:00N 39°15' W 076°32'2 3.4
2017-Dec-06 23:30N 39°13' W 076°32'2 4.1
2017-Dec-06 23:00N 39°15' W 076°33'0 0.3
2017-Dec-06 22:30N 39°15' W 076°33'1 2.1
2017-Dec-06 22:00N 39°16' W 076°34'0 0.0
2017-Dec-06 21:30N 39°16' W 076°34'0 0.0
2017-Dec-06 21:00N 39°16' W 076°34'  

Dump ship's entire track history